Time;durP1;ratioP1;P1;durP2;ratioP2;P2;SDS_P1;SDS_P2;PMS_P1;PMS_P2;Temp;Humidity;BMP_temperature;BMP_pressure;BME280_temperature;BME280_humidity;BME280_pressure;Samples;Min_cycle;Max_cycle;Signal;HPM_P1;HPM_P2
2023/08/13 02:30:39;;;;;;;7.18;2.72;;;21.90;98.20;;;;;;5095344;28;20052;-68
2023/08/13 02:34:02;;;;;;;5.95;2.80;;;21.80;99.00;;;;;;5055872;28;20047;-68
2023/08/13 02:37:06;;;;;;;3.72;2.88;;;21.80;99.00;;;;;;5053035;28;20040;-68
2023/08/13 02:40:10;;;;;;;3.97;2.88;;;21.70;99.50;;;;;;5040319;28;20409;-68
2023/08/13 02:43:14;;;;;;;4.32;2.60;;;21.70;99.20;;;;;;5052714;28;20048;-68
2023/08/13 02:49:59;;;;;;;4.15;2.75;;;21.70;98.80;;;;;;5086871;28;20043;-69
2023/08/13 02:53:03;;;;;;;4.38;2.78;;;21.80;99.10;;;;;;5092475;28;20051;-69
2023/08/13 03:03:13;;;;;;;5.13;2.63;;;21.60;99.60;;;;;;5091382;28;20054;-68
2023/08/13 03:06:36;;;;;;;3.42;2.60;;;21.50;99.90;;;;;;5070620;28;20513;-68
2023/08/13 03:09:40;;;;;;;5.93;2.80;;;21.40;99.90;;;;;;5052487;28;20044;-68
2023/08/13 03:16:06;;;;;;;6.88;2.70;;;21.10;99.90;;;;;;5072217;28;20059;-68
2023/08/13 03:19:29;;;;;;;5.55;2.80;;;21.00;99.90;;;;;;5072409;28;20043;-68
2023/08/13 03:22:33;;;;;;;3.88;2.80;;;20.90;99.90;;;;;;5064201;28;20043;-68
2023/08/13 03:25:56;;;;;;;4.22;2.58;;;20.80;99.90;;;;;;5052083;28;20044;-68
2023/08/13 03:29:00;;;;;;;7.00;3.08;;;20.60;99.90;;;;;;5039651;28;20495;-69
2023/08/13 03:32:05;;;;;;;5.30;2.75;;;20.60;99.90;;;;;;5054749;28;20055;-68
2023/08/13 03:35:09;;;;;;;3.95;2.80;;;20.50;99.90;;;;;;5059282;28;20043;-68
2023/08/13 03:38:13;;;;;;;5.53;2.70;;;20.50;99.90;;;;;;5072080;28;20055;-68
2023/08/13 03:41:36;;;;;;;5.72;2.67;;;20.40;99.90;;;;;;5071438;28;20047;-69
2023/08/13 03:44:41;;;;;;;5.63;3.20;;;20.40;99.90;;;;;;5071346;28;20035;-68
2023/08/13 03:58:13;;;;;;;4.40;3.10;;;19.90;99.90;;;;;;5059132;28;20035;-69
2023/08/13 04:04:59;;;;;;;5.60;3.08;;;19.70;99.90;;;;;;5090486;28;20374;-68
2023/08/13 04:08:03;;;;;;;6.15;2.95;;;19.70;99.90;;;;;;5091187;28;20039;-68
2023/08/13 04:11:08;;;;;;;6.60;3.38;;;19.80;99.90;;;;;;5078337;28;20111;-68
2023/08/13 04:14:30;;;;;;;4.40;2.70;;;19.80;99.90;;;;;;5081154;28;20043;-68
2023/08/13 04:20:57;;;;;;;7.18;3.17;;;19.90;99.90;;;;;;5090352;28;20043;-69
2023/08/13 04:24:20;;;;;;;5.13;3.13;;;19.80;99.90;;;;;;5091183;28;20206;-68
2023/08/13 04:27:24;;;;;;;6.43;2.47;;;19.70;99.90;;;;;;5078977;28;20043;-68
2023/08/13 04:34:47;;;;;;;6.72;2.90;;;19.70;99.90;;;;;;5091015;28;20510;-68
2023/08/13 04:41:39;;;;;;;11.10;3.53;;;19.80;99.90;;;;;;5089665;28;20394;-68
2023/08/13 04:44:44;;;;;;;7.18;3.05;;;19.90;99.90;;;;;;5078362;28;20039;-69
2023/08/13 04:47:49;;;;;;;10.35;3.03;;;20.00;99.90;;;;;;5075935;28;20047;-68
2023/08/13 04:50:53;;;;;;;4.60;3.00;;;20.10;99.90;;;;;;5073952;28;20513;-68
2023/08/13 04:53:57;;;;;;;5.05;3.10;;;20.20;99.90;;;;;;5057393;28;20056;-68
2023/08/13 04:57:03;;;;;;;5.13;2.95;;;20.30;99.90;;;;;;5067801;28;20047;-68
2023/08/13 05:00:27;;;;;;;7.90;2.92;;;20.40;99.90;;;;;;5059497;28;20036;-68
2023/08/13 05:03:32;;;;;;;4.07;3.10;;;20.50;99.90;;;;;;5070005;28;20047;-69
2023/08/13 05:06:54;;;;;;;6.18;2.90;;;20.70;99.90;;;;;;5086952;28;20486;-68
2023/08/13 05:09:58;;;;;;;5.82;3.20;;;20.80;99.90;;;;;;5086823;28;20060;-68
2023/08/13 05:13:21;;;;;;;4.80;2.50;;;20.80;99.90;;;;;;5079717;28;20059;-68
2023/08/13 05:16:25;;;;;;;5.18;2.90;;;21.60;99.90;;;;;;5076607;28;20040;-69
2023/08/13 05:19:31;;;;;;;12.88;3.30;;;24.40;99.90;;;;;;5070417;28;20047;-69
2023/08/13 05:22:34;;;;;;;10.48;3.30;;;26.90;99.90;;;;;;5077743;28;20039;-68
2023/08/13 05:25:40;;;;;;;14.07;3.22;;;28.50;97.00;;;;;;5081282;28;20043;-68
2023/08/13 05:28:46;;;;;;;12.60;2.92;;;29.90;95.00;;;;;;5081737;28;20047;-69
2023/08/13 05:31:50;;;;;;;6.68;2.60;;;31.00;92.90;;;;;;5093403;28;20054;-68
2023/08/13 05:34:54;;;;;;;14.23;3.28;;;31.60;90.90;;;;;;5081223;28;20055;-69
2023/08/13 05:38:36;;;;;;;8.35;2.55;;;31.70;90.60;;;;;;5083683;28;20059;-68
2023/08/13 05:41:43;;;;;;;6.78;2.50;;;32.30;89.60;;;;;;5080645;28;20402;-68
2023/08/13 05:45:06;;;;;;;4.65;2.50;;;32.90;88.10;;;;;;5083288;28;20039;-69
2023/08/13 05:48:10;;;;;;;3.50;2.35;;;33.30;86.80;;;;;;5093716;28;20043;-69
2023/08/13 05:51:33;;;;;;;6.72;2.70;;;33.30;85.90;;;;;;5093533;28;20051;-70
2023/08/13 05:54:37;;;;;;;5.43;2.30;;;32.80;86.80;;;;;;5080649;28;20047;-69
2023/08/13 05:57:41;;;;;;;4.53;2.58;;;32.20;85.80;;;;;;5092115;28;20035;-69
2023/08/13 06:01:04;;;;;;;6.10;2.47;;;31.10;87.40;;;;;;5092773;28;20035;-69
2023/08/13 06:04:08;;;;;;;5.97;2.03;;;31.30;87.60;;;;;;5092855;28;20051;-68
2023/08/13 06:10:34;;;;;;;6.72;2.50;;;32.00;87.30;;;;;;5085236;28;20040;-69
2023/08/13 06:13:38;;;;;;;5.38;2.70;;;32.70;86.40;;;;;;5092607;28;20398;-69
2023/08/13 06:16:43;;;;;;;3.33;1.83;;;33.20;85.40;;;;;;5093049;28;20110;-69
2023/08/13 06:19:47;;;;;;;3.67;2.15;;;33.00;85.20;;;;;;5093160;28;20111;-69
2023/08/13 06:22:50;;;;;;;2.85;2.45;;;33.60;84.40;;;;;;5092551;28;20627;-69
2023/08/13 06:25:54;;;;;;;3.05;2.10;;;32.10;85.70;;;;;;5093129;28;20486;-69
2023/08/13 06:28:58;;;;;;;3.10;2.17;;;31.90;86.10;;;;;;5080479;28;20039;-69
2023/08/13 06:32:03;;;;;;;3.15;2.20;;;32.10;85.90;;;;;;5092202;28;20402;-68
2023/08/13 06:35:25;;;;;;;4.68;2.92;;;32.50;85.60;;;;;;5071409;28;20055;-69
2023/08/13 06:41:52;;;;;;;2.88;2.40;;;32.20;85.00;;;;;;5088614;28;20395;-69
2023/08/13 06:45:33;;;;;;;4.57;2.85;;;31.80;84.90;;;;;;5092580;28;20494;-69
2023/08/13 06:48:38;;;;;;;6.97;2.22;;;31.30;85.90;;;;;;5092799;28;20036;-69
2023/08/13 06:51:42;;;;;;;3.63;1.83;;;31.70;86.30;;;;;;5092284;28;20054;-69
2023/08/13 06:55:05;;;;;;;3.30;2.00;;;31.90;86.40;;;;;;5092167;28;20047;-69
2023/08/13 06:58:08;;;;;;;4.40;2.33;;;32.90;85.50;;;;;;5092182;28;20046;-69
2023/08/13 07:01:50;;;;;;;4.10;2.00;;;33.30;84.40;;;;;;5092577;28;20044;-69
2023/08/13 07:04:54;;;;;;;3.53;2.05;;;33.60;83.60;;;;;;5091346;28;20035;-69
2023/08/13 07:08:17;;;;;;;4.65;2.03;;;32.90;85.10;;;;;;5079673;28;20387;-69
2023/08/13 07:11:40;;;;;;;6.28;2.60;;;33.40;84.40;;;;;;5091584;28;20039;-69
2023/08/13 07:14:44;;;;;;;9.02;2.70;;;32.80;84.10;;;;;;5071574;28;20052;-69
2023/08/13 07:18:07;;;;;;;6.32;2.40;;;31.30;85.10;;;;;;5071554;28;20048;-70
2023/08/13 07:21:30;;;;;;;5.85;2.47;;;31.30;86.30;;;;;;5071508;28;20522;-70
2023/08/13 07:24:34;;;;;;;7.57;2.58;;;32.30;86.30;;;;;;5071920;28;20239;-69
2023/08/13 07:27:57;;;;;;;5.95;2.80;;;32.30;85.90;;;;;;5071628;28;20051;-69
2023/08/13 07:31:04;;;;;;;5.30;2.40;;;31.80;85.50;;;;;;5071794;28;20486;-69
2023/08/13 07:34:08;;;;;;;4.72;2.50;;;31.70;86.40;;;;;;5071384;28;20526;-70
2023/08/13 07:37:12;;;;;;;3.10;2.05;;;31.80;85.50;;;;;;5071242;28;20039;-69
2023/08/13 07:40:16;;;;;;;3.67;2.13;;;33.00;85.50;;;;;;5071577;28;20044;-69
2023/08/13 07:43:21;;;;;;;5.70;2.47;;;33.70;83.00;;;;;;5070779;28;20047;-69
2023/08/13 07:47:02;;;;;;;3.72;2.50;;;33.60;82.90;;;;;;5077261;28;20035;-70
2023/08/13 07:53:48;;;;;;;6.75;2.50;;;35.80;79.40;;;;;;5091077;28;20047;-69
2023/08/13 07:56:52;;;;;;;7.18;1.90;;;36.80;78.80;;;;;;5092197;28;20058;-69
2023/08/13 07:59:56;;;;;;;3.75;2.20;;;37.50;76.40;;;;;;5091416;28;20391;-69
2023/08/13 08:03:00;;;;;;;2.97;1.92;;;37.70;75.60;;;;;;5090762;28;20058;-70
2023/08/13 08:06:04;;;;;;;3.88;2.20;;;37.90;76.40;;;;;;5091202;28;20035;-69
2023/08/13 08:09:09;;;;;;;3.85;1.80;;;36.00;74.20;;;;;;5089950;28;20050;-69
2023/08/13 08:12:13;;;;;;;4.03;2.20;;;36.50;74.50;;;;;;5090730;28;20055;-69
2023/08/13 08:15:17;;;;;;;3.53;2.30;;;37.50;75.50;;;;;;5091598;28;20054;-69
2023/08/13 08:25:28;;;;;;;9.35;2.80;;;37.00;75.00;;;;;;5070840;28;20384;-70
2023/08/13 08:28:51;;;;;;;6.50;1.83;;;37.60;73.50;;;;;;5080278;28;20035;-70
2023/08/13 08:31:55;;;;;;;3.08;2.00;;;39.20;72.30;;;;;;5086848;28;20386;-69
2023/08/13 08:34:59;;;;;;;5.85;2.17;;;40.90;70.80;;;;;;5090693;28;20047;-70
2023/08/13 08:38:03;;;;;;;3.13;1.73;;;38.30;71.30;;;;;;5090857;28;20149;-69
2023/08/13 08:41:31;;;;;;;3.47;1.65;;;38.10;72.60;;;;;;5090426;28;20047;-70
2023/08/13 08:44:42;;;;;;;5.45;2.10;;;39.30;71.60;;;;;;5090594;28;20035;-70
2023/08/13 08:47:48;;;;;;;4.03;1.90;;;37.90;72.10;;;;;;5091086;28;20039;-68
2023/08/13 08:50:52;;;;;;;5.07;2.00;;;39.10;71.90;;;;;;5090272;28;20398;-68
2023/08/13 08:53:58;;;;;;;8.25;1.50;;;39.70;71.00;;;;;;5090509;28;20039;-68
2023/08/13 08:57:02;;;;;;;5.15;1.70;;;41.20;69.40;;;;;;5089965;28;20039;-67
2023/08/13 09:00:06;;;;;;;6.45;1.60;;;41.90;69.10;;;;;;5090295;28;20043;-68
2023/08/13 09:03:48;;;;;;;2.92;1.98;;;42.40;68.30;;;;;;5088467;28;20047;-68
2023/08/13 09:07:02;;;;;;;6.80;2.15;;;42.20;66.50;;;;;;5090553;28;20050;-68
2023/08/13 09:10:07;;;;;;;4.70;2.20;;;42.20;67.00;;;;;;5090425;28;20039;-68
2023/08/13 09:13:11;;;;;;;2.80;2.33;;;41.10;66.30;;;;;;5089791;28;20506;-68
2023/08/13 09:16:15;;;;;;;4.63;2.00;;;39.70;66.40;;;;;;5090310;28;20051;-68
2023/08/13 09:19:38;;;;;;;3.65;2.15;;;39.70;67.70;;;;;;5087508;28;20042;-69
2023/08/13 09:22:50;;;;;;;3.13;1.70;;;42.00;65.90;;;;;;5084083;28;20039;-69
2023/08/13 09:25:55;;;;;;;4.82;1.70;;;41.40;66.10;;;;;;5086393;28;20051;-69
2023/08/13 09:28:59;;;;;;;5.97;1.73;;;44.10;64.30;;;;;;5077779;28;20474;-69
2023/08/13 09:35:45;;;;;;;2.40;1.50;;;45.00;62.90;;;;;;5084930;28;20134;-69
2023/08/13 09:39:08;;;;;;;4.88;1.98;;;44.50;63.40;;;;;;5069912;28;20047;-68
2023/08/13 09:42:13;;;;;;;6.15;1.55;;;41.50;63.10;;;;;;5069430;28;20048;-68
2023/08/13 09:45:21;;;;;;;6.80;1.63;;;42.60;63.80;;;;;;5070605;28;20036;-68
2023/08/13 09:51:52;;;;;;;3.00;1.63;;;43.00;62.50;;;;;;5069350;28;20047;-68
2023/08/13 09:55:15;;;;;;;4.10;1.70;;;42.80;62.40;;;;;;5069801;28;20051;-67
2023/08/13 09:58:20;;;;;;;3.03;1.45;;;41.60;64.30;;;;;;5080934;28;20419;-69
2023/08/13 10:01:44;;;;;;;4.05;1.58;;;43.80;63.10;;;;;;5083163;28;20387;-68
2023/08/13 10:04:48;;;;;;;2.47;1.73;;;45.30;62.00;;;;;;5085616;28;20390;-69
2023/08/13 10:08:11;;;;;;;2.53;1.50;;;45.70;61.00;;;;;;5090043;28;20039;-69
2023/08/13 10:11:17;;;;;;;1.98;1.42;;;46.20;61.00;;;;;;5072964;28;20043;-68
2023/08/13 10:14:21;;;;;;;1.45;1.30;;;48.40;59.40;;;;;;5073311;28;20048;-69
2023/08/13 10:17:44;;;;;;;3.15;1.50;;;48.90;58.60;;;;;;5073080;28;20042;-69
2023/08/13 10:21:12;;;;;;;2.63;1.60;;;49.40;57.70;;;;;;5073008;28;20042;-69
2023/08/13 10:24:16;;;;;;;3.63;1.80;;;46.00;59.00;;;;;;5072991;28;20043;-69
2023/08/13 10:27:21;;;;;;;4.72;1.38;;;46.30;58.80;;;;;;5072736;28;20371;-69
2023/08/13 10:30:25;;;;;;;5.07;1.50;;;46.00;57.70;;;;;;5073204;28;20040;-69
2023/08/13 10:33:30;;;;;;;6.57;1.70;;;44.10;61.10;;;;;;5072898;28;20047;-69
2023/08/13 10:37:01;;;;;;;4.50;1.85;;;45.80;59.40;;;;;;5073289;28;20051;-69
2023/08/13 10:41:03;;;;;;;2.67;1.25;;;47.70;58.50;;;;;;5072412;28;20047;-69
2023/08/13 10:44:30;;;;;;;2.28;1.63;;;48.00;56.70;;;;;;5072616;28;20512;-69
2023/08/13 10:47:49;;;;;;;4.95;1.30;;;49.20;56.40;;;;;;5072574;28;20534;-70
2023/08/13 10:50:57;;;;;;;3.17;1.48;;;50.50;56.20;;;;;;5071963;28;20036;-70
2023/08/13 10:54:01;;;;;;;2.87;1.27;;;49.50;55.90;;;;;;5083138;28;20058;-69
2023/08/13 10:57:28;;;;;;;3.88;1.10;;;47.60;55.50;;;;;;5092430;28;20273;-70
2023/08/13 11:00:42;;;;;;;2.58;1.40;;;48.50;55.10;;;;;;5092566;28;20043;-69
2023/08/13 11:03:55;;;;;;;2.75;1.30;;;49.40;54.90;;;;;;5092105;28;20043;-69
2023/08/13 11:07:00;;;;;;;2.40;1.50;;;49.00;54.90;;;;;;5091896;28;20055;-69
2023/08/13 11:10:05;;;;;;;3.40;1.30;;;44.30;56.40;;;;;;5092100;28;20039;-69
2023/08/13 11:13:10;;;;;;;7.55;1.63;;;46.10;56.90;;;;;;5091204;28;20043;-69
2023/08/13 11:16:14;;;;;;;4.78;1.45;;;46.00;56.10;;;;;;5091859;28;20510;-69
2023/08/13 11:19:18;;;;;;;2.05;1.48;;;47.50;56.70;;;;;;5092118;28;20047;-69
2023/08/13 11:22:24;;;;;;;7.22;1.63;;;47.50;55.60;;;;;;5091365;28;20047;-70
2023/08/13 23:03:47;;;;;;;7.22;4.18;;;24.90;99.90;;;;;;5091893;28;20044;-73
2023/08/13 23:06:53;;;;;;;6.45;4.32;;;24.80;99.90;;;;;;5079401;28;20046;-73
2023/08/13 23:09:58;;;;;;;6.72;4.53;;;24.60;99.90;;;;;;5090980;28;20085;-73
2023/08/13 23:13:02;;;;;;;6.40;4.70;;;24.60;99.90;;;;;;5075913;28;20043;-74
2023/08/13 23:16:07;;;;;;;6.05;4.55;;;24.60;99.90;;;;;;5078293;28;20590;-74
2023/08/13 23:19:11;;;;;;;12.15;3.75;;;24.50;99.90;;;;;;5092403;28;20058;-74
2023/08/13 23:22:14;;;;;;;8.77;4.05;;;24.50;99.90;;;;;;5091974;28;20047;-74
2023/08/13 23:25:18;;;;;;;4.43;3.70;;;24.40;99.90;;;;;;5092123;28;20047;-74
2023/08/13 23:28:23;;;;;;;10.75;3.97;;;24.50;99.90;;;;;;5084113;28;20043;-75
2023/08/13 23:31:27;;;;;;;16.10;4.20;;;24.50;99.90;;;;;;5091934;28;20415;-74
2023/08/13 23:34:32;;;;;;;6.53;4.53;;;24.50;99.90;;;;;;5092014;28;20051;-74
2023/08/13 23:37:35;;;;;;;8.60;4.22;;;24.60;99.90;;;;;;5091959;28;20043;-73
2023/08/13 23:40:39;;;;;;;8.18;4.13;;;24.60;99.90;;;;;;5092602;28;20042;-75
2023/08/13 23:43:43;;;;;;;4.15;3.38;;;24.60;99.90;;;;;;5071779;28;20039;-74
2023/08/13 23:46:49;;;;;;;5.07;3.38;;;24.70;99.90;;;;;;5058806;28;20047;-72
2023/08/13 23:49:53;;;;;;;7.80;3.40;;;24.70;99.90;;;;;;5071522;28;20047;-75
2023/08/13 23:52:58;;;;;;;6.50;3.78;;;24.70;99.90;;;;;;5058820;28;20223;-74
2023/08/13 23:56:02;;;;;;;7.32;3.60;;;24.60;99.90;;;;;;5071054;28;20383;-73
2023/08/13 23:59:07;;;;;;;7.75;3.35;;;24.60;99.90;;;;;;5071131;28;20384;-73
